Time;durP1;ratioP1;P1;durP2;ratioP2;P2;SDS_P1;SDS_P2;PMS_P1;PMS_P2;Temp;Humidity;BMP_temperature;BMP_pressure;BME280_temperature;BME280_humidity;BME280_pressure;Samples;Min_cycle;Max_cycle;Signal;HPM_P1;HPM_P2
2023/07/16 00:00:10;;;;;;;15.13;4.65;;;;;;;;;;5102543;27;20044;-51
2023/07/16 00:02:39;;;;;;;8.07;4.60;;;;;;;;;;5102424;27;20134;-51
2023/07/16 00:05:06;;;;;;;13.00;4.95;;;;;;;;;;5101474;27;20051;-51
2023/07/16 00:07:32;;;;;;;11.10;5.38;;;;;;;;;;5098634;27;20503;-51
2023/07/16 00:09:58;;;;;;;7.95;4.80;;;;;;;;;;5101597;27;20051;-51
2023/07/16 00:12:24;;;;;;;11.95;5.25;;;;;;;;;;5098745;27;20048;-52
2023/07/16 00:14:50;;;;;;;10.35;5.43;;;;;;;;;;5102961;27;20043;-51
2023/07/16 00:17:16;;;;;;;8.40;4.45;;;;;;;;;;5100974;27;20091;-51
2023/07/16 00:19:42;;;;;;;10.40;5.00;;;;;;;;;;5099613;27;20036;-52
2023/07/16 00:22:08;;;;;;;13.57;5.35;;;;;;;;;;5098613;27;20039;-52
2023/07/16 00:24:34;;;;;;;7.90;3.70;;;;;;;;;;5083317;28;20047;-52
2023/07/16 00:27:00;;;;;;;9.95;5.80;;;;;;;;;;5100647;27;20105;-51
2023/07/16 00:29:26;;;;;;;10.95;5.50;;;;;;;;;;5101021;27;20154;-51
2023/07/16 00:31:55;;;;;;;18.95;4.75;;;;;;;;;;5099270;27;20040;-52
2023/07/16 00:34:22;;;;;;;14.52;4.88;;;;;;;;;;5100160;27;20064;-52
2023/07/16 00:36:48;;;;;;;11.27;4.70;;;;;;;;;;5100965;27;20048;-52
2023/07/16 00:39:14;;;;;;;17.60;4.97;;;;;;;;;;5098687;27;20158;-52
2023/07/16 00:41:40;;;;;;;16.00;5.03;;;;;;;;;;5099931;27;20139;-52
2023/07/16 00:44:06;;;;;;;8.18;4.78;;;;;;;;;;5102062;27;20545;-52
2023/07/16 00:46:32;;;;;;;13.63;5.20;;;;;;;;;;5081797;27;20047;-52
2023/07/16 00:48:58;;;;;;;10.40;5.07;;;;;;;;;;5099922;27;20040;-52
2023/07/16 00:51:25;;;;;;;12.07;6.90;;;;;;;;;;5102121;27;20044;-52
2023/07/16 00:53:51;;;;;;;11.50;4.80;;;;;;;;;;5097497;27;20047;-52
2023/07/16 00:56:18;;;;;;;13.00;5.22;;;;;;;;;;5099575;27;20044;-52
2023/07/16 00:58:44;;;;;;;9.43;5.13;;;;;;;;;;5102110;27;20526;-52
2023/07/16 01:01:10;;;;;;;11.85;4.78;;;;;;;;;;5101834;27;20523;-52
2023/07/16 01:03:36;;;;;;;7.13;4.25;;;;;;;;;;5102553;27;20037;-52
2023/07/16 01:06:11;;;;;;;9.30;4.47;;;;;;;;;;5102162;27;20165;-52
2023/07/16 01:08:43;;;;;;;10.57;5.72;;;;;;;;;;5101202;27;20548;-52
2023/07/16 01:11:10;;;;;;;11.10;4.75;;;;;;;;;;5100869;27;20107;-52
2023/07/16 01:13:36;;;;;;;12.07;4.53;;;;;;;;;;5098102;27;20036;-52
2023/07/16 01:16:02;;;;;;;9.18;6.60;;;;;;;;;;5098416;27;20521;-52
2023/07/16 01:18:29;;;;;;;13.35;5.05;;;;;;;;;;5100083;27;20078;-52
2023/07/16 01:20:55;;;;;;;11.02;4.88;;;;;;;;;;5094347;27;20051;-52
2023/07/16 01:23:24;;;;;;;9.57;5.13;;;;;;;;;;5099407;27;20040;-52
2023/07/16 01:26:07;;;;;;;9.80;4.40;;;;;;;;;;5098709;27;20040;-52
2023/07/16 01:28:33;;;;;;;13.05;4.95;;;;;;;;;;5098877;27;20500;-52
2023/07/16 01:30:59;;;;;;;10.35;4.18;;;;;;;;;;5100831;27;20040;-52
2023/07/16 01:33:26;;;;;;;9.13;4.43;;;;;;;;;;5100948;27;20051;-52
2023/07/16 01:35:52;;;;;;;12.85;4.65;;;;;;;;;;5099139;27;20047;-52
2023/07/16 01:38:20;;;;;;;8.77;3.65;;;;;;;;;;5101414;27;20042;-52
2023/07/16 01:40:47;;;;;;;12.40;5.20;;;;;;;;;;5101504;27;20043;-52
2023/07/16 01:43:16;;;;;;;10.02;4.57;;;;;;;;;;5100663;27;20044;-52
2023/07/16 01:45:42;;;;;;;10.18;4.65;;;;;;;;;;5097024;27;20441;-52
2023/07/16 01:48:14;;;;;;;12.18;4.22;;;;;;;;;;5100217;27;20040;-52
2023/07/16 01:50:40;;;;;;;11.55;4.80;;;;;;;;;;5098636;27;20044;-52
2023/07/16 01:53:06;;;;;;;14.23;4.78;;;;;;;;;;5101466;27;20614;-52
2023/07/16 01:55:32;;;;;;;10.25;4.20;;;;;;;;;;5097922;27;20045;-52
2023/07/16 01:57:58;;;;;;;15.38;4.53;;;;;;;;;;5097374;27;20040;-52
2023/07/16 02:00:24;;;;;;;19.35;5.25;;;;;;;;;;5101650;27;20068;-52
2023/07/16 02:02:50;;;;;;;12.75;4.32;;;;;;;;;;5100742;27;20529;-52
2023/07/16 02:05:17;;;;;;;12.88;6.30;;;;;;;;;;5100195;27;20045;-52
2023/07/16 02:07:43;;;;;;;8.10;4.72;;;;;;;;;;5100885;27;20044;-52
2023/07/16 02:10:09;;;;;;;15.18;5.40;;;;;;;;;;5104946;27;20044;-52
2023/07/16 02:12:35;;;;;;;15.40;5.82;;;;;;;;;;5103382;27;20047;-52
2023/07/16 02:15:04;;;;;;;13.95;5.80;;;;;;;;;;5103675;27;20032;-52
2023/07/16 02:17:30;;;;;;;10.85;4.60;;;;;;;;;;5104124;27;20040;-52
2023/07/16 02:19:56;;;;;;;12.15;4.80;;;;;;;;;;5102342;27;20048;-52
2023/07/16 02:22:22;;;;;;;10.68;5.53;;;;;;;;;;5105303;27;20093;-52
2023/07/16 02:24:48;;;;;;;8.00;4.28;;;;;;;;;;5101036;27;20090;-52
2023/07/16 02:27:15;;;;;;;11.88;4.85;;;;;;;;;;5103430;27;20067;-52
2023/07/16 02:29:41;;;;;;;9.27;5.05;;;;;;;;;;5104705;27;20433;-52
2023/07/16 02:32:07;;;;;;;13.23;6.43;;;;;;;;;;5104287;27;20044;-52
2023/07/16 02:34:33;;;;;;;13.55;4.97;;;;;;;;;;5101863;27;20574;-52
2023/07/16 02:36:59;;;;;;;12.73;4.97;;;;;;;;;;5085210;27;20036;-52
2023/07/16 02:39:25;;;;;;;8.20;4.57;;;;;;;;;;5104502;27;20048;-52
2023/07/16 02:41:51;;;;;;;9.65;4.47;;;;;;;;;;5102446;27;20701;-52
2023/07/16 02:44:17;;;;;;;12.15;6.53;;;;;;;;;;5105388;27;20515;-51
2023/07/16 02:46:44;;;;;;;14.07;5.05;;;;;;;;;;5103529;27;20470;-52
2023/07/16 02:49:10;;;;;;;11.90;5.47;;;;;;;;;;5101673;27;20098;-52
2023/07/16 02:51:36;;;;;;;11.15;5.35;;;;;;;;;;5080404;28;20048;-52
2023/07/16 02:54:02;;;;;;;10.70;5.38;;;;;;;;;;5104377;27;20113;-52
2023/07/16 02:56:31;;;;;;;13.80;5.43;;;;;;;;;;5100729;27;20040;-52
2023/07/16 02:58:57;;;;;;;15.20;5.03;;;;;;;;;;5102184;27;20044;-52
2023/07/16 03:01:23;;;;;;;9.63;4.82;;;;;;;;;;5102741;27;20040;-52
2023/07/16 03:03:49;;;;;;;20.60;7.25;;;;;;;;;;5102169;27;20040;-52
2023/07/16 03:06:15;;;;;;;14.35;5.72;;;;;;;;;;5102321;27;20036;-53
2023/07/16 03:08:41;;;;;;;10.48;5.32;;;;;;;;;;5104790;27;20050;-52
2023/07/16 03:11:07;;;;;;;9.70;5.38;;;;;;;;;;5101952;27;20044;-52
2023/07/16 03:13:34;;;;;;;11.10;5.80;;;;;;;;;;5087457;27;20044;-52
2023/07/16 03:16:00;;;;;;;13.75;5.72;;;;;;;;;;5102075;27;20044;-52
2023/07/16 03:18:30;;;;;;;13.90;5.70;;;;;;;;;;5103122;27;20044;-53
2023/07/16 03:20:56;;;;;;;11.07;5.93;;;;;;;;;;5102385;27;20166;-52
2023/07/16 03:23:22;;;;;;;13.75;5.13;;;;;;;;;;5102158;27;20036;-52
2023/07/16 03:25:49;;;;;;;9.05;5.50;;;;;;;;;;5102780;27;20040;-52
2023/07/16 03:28:15;;;;;;;15.80;4.65;;;;;;;;;;5077178;27;20052;-52
2023/07/16 03:30:41;;;;;;;18.15;6.00;;;;;;;;;;5103208;27;20040;-52
2023/07/16 03:33:07;;;;;;;18.60;7.18;;;;;;;;;;5105844;27;20040;-52
2023/07/16 03:35:33;;;;;;;17.60;5.25;;;;;;;;;;5101429;27;20086;-52
2023/07/16 03:37:59;;;;;;;10.95;4.82;;;;;;;;;;5102664;27;20039;-52
2023/07/16 03:40:26;;;;;;;12.85;5.63;;;;;;;;;;5102380;27;20052;-52
2023/07/16 03:42:52;;;;;;;14.60;5.00;;;;;;;;;;5104051;27;20060;-52
2023/07/16 03:45:18;;;;;;;14.40;5.30;;;;;;;;;;5101774;27;20051;-52
2023/07/16 03:47:44;;;;;;;16.70;6.47;;;;;;;;;;5104676;27;20036;-52
2023/07/16 03:50:11;;;;;;;18.95;6.53;;;;;;;;;;5101130;27;20541;-52
2023/07/16 03:52:37;;;;;;;14.38;4.70;;;;;;;;;;5106694;27;20040;-52
2023/07/16 03:55:03;;;;;;;14.93;5.47;;;;;;;;;;5102398;27;20050;-52
2023/07/16 03:57:29;;;;;;;11.80;5.35;;;;;;;;;;5101101;27;20044;-52
2023/07/16 03:59:55;;;;;;;14.63;6.13;;;;;;;;;;5096122;27;21033;-52
2023/07/16 04:02:21;;;;;;;10.05;5.10;;;;;;;;;;5099574;27;20050;-52
2023/07/16 04:04:47;;;;;;;16.30;5.88;;;;;;;;;;5100410;27;20467;-52
2023/07/16 04:07:13;;;;;;;11.55;5.82;;;;;;;;;;5100670;27;20575;-52
2023/07/16 04:09:40;;;;;;;14.43;5.22;;;;;;;;;;5103591;27;20071;-52
2023/07/16 04:12:07;;;;;;;15.35;6.60;;;;;;;;;;5102744;27;20449;-52
2023/07/16 04:14:33;;;;;;;14.45;5.75;;;;;;;;;;5102978;27;20098;-52
2023/07/16 04:16:59;;;;;;;10.32;5.68;;;;;;;;;;5100820;27;20043;-52
2023/07/16 04:19:25;;;;;;;14.25;5.15;;;;;;;;;;5103559;27;20043;-52
2023/07/16 04:21:51;;;;;;;9.38;4.45;;;;;;;;;;5102746;27;20039;-52
2023/07/16 04:24:17;;;;;;;11.13;5.22;;;;;;;;;;5103189;27;20507;-52
2023/07/16 04:26:43;;;;;;;18.25;6.43;;;;;;;;;;5100817;27;20040;-52
2023/07/16 04:29:09;;;;;;;12.50;6.15;;;;;;;;;;5101018;27;20075;-52
2023/07/16 04:31:35;;;;;;;11.52;5.53;;;;;;;;;;5100880;27;20062;-52
2023/07/16 04:34:01;;;;;;;12.50;5.75;;;;;;;;;;5098547;27;20040;-52
2023/07/16 04:36:27;;;;;;;16.08;5.57;;;;;;;;;;5099647;27;20043;-52
2023/07/16 04:38:54;;;;;;;12.45;5.47;;;;;;;;;;5098866;27;20064;-52
2023/07/16 04:41:20;;;;;;;15.90;5.65;;;;;;;;;;5102483;27;20043;-52
2023/07/16 04:43:46;;;;;;;15.30;5.95;;;;;;;;;;5101701;27;20093;-52
2023/07/16 04:46:12;;;;;;;12.88;5.35;;;;;;;;;;5101627;27;20052;-52
2023/07/16 04:48:38;;;;;;;11.93;5.22;;;;;;;;;;5100503;27;20070;-52
2023/07/16 04:51:04;;;;;;;9.43;6.13;;;;;;;;;;5100186;27;20126;-52
2023/07/16 04:53:30;;;;;;;11.55;4.75;;;;;;;;;;5099314;27;20051;-52
2023/07/16 04:55:56;;;;;;;10.05;5.70;;;;;;;;;;5100703;27;20522;-52
2023/07/16 04:58:23;;;;;;;18.23;6.00;;;;;;;;;;5098752;27;20036;-52
2023/07/16 05:00:49;;;;;;;11.40;6.25;;;;;;;;;;5102379;27;20078;-52
2023/07/16 05:03:15;;;;;;;9.82;5.60;;;;;;;;;;5099388;27;20044;-52
2023/07/16 05:05:41;;;;;;;14.88;5.80;;;;;;;;;;5100935;27;20049;-52
2023/07/16 05:08:07;;;;;;;26.30;6.82;;;;;;;;;;5099665;27;20036;-51
2023/07/16 05:10:34;;;;;;;12.88;5.28;;;;;;;;;;5082212;27;20071;-52
2023/07/16 05:13:00;;;;;;;14.45;5.68;;;;;;;;;;5098059;27;20043;-52
2023/07/16 05:15:26;;;;;;;14.90;5.70;;;;;;;;;;5100578;27;20048;-52
2023/07/16 05:17:52;;;;;;;11.15;5.53;;;;;;;;;;5098767;27;20133;-52
2023/07/16 05:20:18;;;;;;;10.30;5.60;;;;;;;;;;5097091;27;20067;-52
2023/07/16 05:22:44;;;;;;;9.27;5.28;;;;;;;;;;5083940;28;20040;-52
2023/07/16 05:25:10;;;;;;;11.65;5.57;;;;;;;;;;5098801;27;20045;-52
2023/07/16 05:27:36;;;;;;;12.02;5.97;;;;;;;;;;5101723;27;20066;-52
2023/07/16 05:30:03;;;;;;;12.40;5.40;;;;;;;;;;5101558;27;20066;-52
2023/07/16 05:32:29;;;;;;;11.52;5.05;;;;;;;;;;5100938;27;20122;-52
2023/07/16 05:34:55;;;;;;;13.40;6.05;;;;;;;;;;5100537;27;20706;-52
2023/07/16 05:37:21;;;;;;;10.57;5.30;;;;;;;;;;5100482;27;20135;-52
2023/07/16 05:39:47;;;;;;;12.10;6.32;;;;;;;;;;5099931;27;20110;-52
2023/07/16 05:42:14;;;;;;;11.35;6.20;;;;;;;;;;5102852;27;20075;-53
2023/07/16 05:44:41;;;;;;;13.18;5.47;;;;;;;;;;5102942;27;20137;-52
2023/07/16 05:47:08;;;;;;;17.73;6.55;;;;;;;;;;5105210;27;20134;-52
2023/07/16 05:49:34;;;;;;;13.57;6.07;;;;;;;;;;5102437;27;20466;-52
2023/07/16 05:52:01;;;;;;;15.00;6.00;;;;;;;;;;5103886;27;21032;-52
2023/07/16 05:54:27;;;;;;;10.13;5.25;;;;;;;;;;5089558;28;20052;-52
2023/07/16 05:56:53;;;;;;;14.95;6.25;;;;;;;;;;5103751;27;20092;-52
2023/07/16 05:59:19;;;;;;;14.82;6.68;;;;;;;;;;5103950;27;20149;-52
2023/07/16 06:01:45;;;;;;;15.52;5.53;;;;;;;;;;5105678;27;20044;-52
2023/07/16 06:04:11;;;;;;;18.35;7.85;;;;;;;;;;5084451;27;20048;-52
2023/07/16 06:06:37;;;;;;;14.10;6.35;;;;;;;;;;5103048;27;20050;-53
2023/07/16 06:09:03;;;;;;;12.48;6.13;;;;;;;;;;5097804;27;20045;-52
2023/07/16 06:11:29;;;;;;;11.93;6.20;;;;;;;;;;5104938;27;20123;-52
2023/07/16 06:13:55;;;;;;;8.55;5.35;;;;;;;;;;5099915;27;20032;-52
2023/07/16 06:16:21;;;;;;;15.65;7.90;;;;;;;;;;5104447;27;20048;-52
2023/07/16 06:18:48;;;;;;;11.00;7.70;;;;;;;;;;5102247;27;20076;-52
2023/07/16 06:21:14;;;;;;;12.85;5.75;;;;;;;;;;5102874;27;20039;-52
2023/07/16 06:23:40;;;;;;;15.80;6.35;;;;;;;;;;5102471;27;20098;-52
2023/07/16 06:26:06;;;;;;;15.85;7.50;;;;;;;;;;5103958;27;20127;-52
2023/07/16 06:28:33;;;;;;;13.32;5.75;;;;;;;;;;5103915;27;20044;-52
2023/07/16 06:30:59;;;;;;;21.38;6.47;;;;;;;;;;5102252;27;20040;-52
2023/07/16 06:33:27;;;;;;;15.93;7.07;;;;;;;;;;5103007;27;20425;-52
2023/07/16 06:35:53;;;;;;;12.65;6.38;;;;;;;;;;5103730;27;20048;-52
2023/07/16 06:38:19;;;;;;;17.40;7.35;;;;;;;;;;5103480;27;20048;-52
2023/07/16 06:40:48;;;;;;;13.40;7.25;;;;;;;;;;5099643;27;20043;-52
2023/07/16 06:43:15;;;;;;;11.27;5.80;;;;;;;;;;5099656;27;20143;-52
2023/07/16 06:45:41;;;;;;;18.33;5.68;;;;;;;;;;5105500;27;20043;-52
2023/07/16 06:48:07;;;;;;;18.48;7.00;;;;;;;;;;5085498;27;20071;-52
2023/07/16 06:50:33;;;;;;;15.30;6.45;;;;;;;;;;5103438;27;20059;-52
2023/07/16 06:52:59;;;;;;;20.58;7.32;;;;;;;;;;5102866;27;20138;-52
2023/07/16 06:55:25;;;;;;;13.55;5.60;;;;;;;;;;5103450;27;20146;-52
2023/07/16 06:57:51;;;;;;;11.15;5.68;;;;;;;;;;5103864;27;20059;-52
2023/07/16 07:00:17;;;;;;;16.33;5.47;;;;;;;;;;5104033;27;20048;-52
2023/07/16 07:02:43;;;;;;;17.33;5.65;;;;;;;;;;5100564;27;20040;-52
2023/07/16 07:05:10;;;;;;;15.15;6.22;;;;;;;;;;5104062;27;20048;-52
2023/07/16 07:07:36;;;;;;;16.90;5.20;;;;;;;;;;5103399;27;20040;-52
2023/07/16 07:10:02;;;;;;;17.60;7.07;;;;;;;;;;5102511;27;20044;-52
2023/07/16 07:12:28;;;;;;;14.50;5.43;;;;;;;;;;5102011;27;20146;-52
2023/07/16 07:14:54;;;;;;;12.23;5.75;;;;;;;;;;5098603;27;20048;-51
2023/07/16 07:17:20;;;;;;;12.95;5.22;;;;;;;;;;5084570;28;20066;-52
2023/07/16 07:19:46;;;;;;;13.30;5.80;;;;;;;;;;5099907;27;20040;-52
2023/07/16 07:22:12;;;;;;;15.77;6.18;;;;;;;;;;5100514;27;20531;-52
2023/07/16 07:24:39;;;;;;;11.88;5.28;;;;;;;;;;5102405;27;20040;-52
2023/07/16 07:27:05;;;;;;;14.35;4.30;;;;;;;;;;5101071;27;20511;-52
2023/07/16 07:29:31;;;;;;;18.42;5.30;;;;;;;;;;5099959;27;20102;-51
2023/07/16 07:31:57;;;;;;;14.40;5.03;;;;;;;;;;5103568;27;20137;-52
2023/07/16 07:34:23;;;;;;;14.63;5.72;;;;;;;;;;5102419;27;20047;-51
2023/07/16 07:36:49;;;;;;;13.02;4.13;;;;;;;;;;5103386;27;20043;-51
2023/07/16 07:39:16;;;;;;;13.95;5.30;;;;;;;;;;5103042;27;20036;-52
2023/07/16 07:41:42;;;;;;;9.40;4.05;;;;;;;;;;5100338;27;20052;-51
2023/07/16 07:44:08;;;;;;;9.93;4.45;;;;;;;;;;5103468;27;20504;-52
2023/07/16 07:46:34;;;;;;;9.00;4.32;;;;;;;;;;5103374;27;20055;-53
2023/07/16 07:49:00;;;;;;;10.77;5.32;;;;;;;;;;5099973;27;20036;-52
2023/07/16 07:51:27;;;;;;;16.73;5.40;;;;;;;;;;5100394;27;20151;-52
2023/07/16 07:53:53;;;;;;;16.50;5.95;;;;;;;;;;5080143;27;20040;-52
2023/07/16 07:56:19;;;;;;;12.18;4.47;;;;;;;;;;5101404;27;20482;-52
2023/07/16 07:58:45;;;;;;;14.75;5.40;;;;;;;;;;5102042;27;20519;-52
2023/07/16 08:01:11;;;;;;;11.90;4.47;;;;;;;;;;5100649;27;20140;-52
2023/07/16 08:03:37;;;;;;;14.48;4.50;;;;;;;;;;5104581;27;20142;-51
2023/07/16 08:06:03;;;;;;;13.90;5.43;;;;;;;;;;5103662;27;20079;-52
2023/07/16 08:08:29;;;;;;;13.45;5.45;;;;;;;;;;5103445;27;20044;-52
2023/07/16 08:10:56;;;;;;;12.13;6.00;;;;;;;;;;5101764;27;20047;-52
2023/07/16 08:13:22;;;;;;;14.50;5.05;;;;;;;;;;5100893;27;20040;-52
2023/07/16 08:15:48;;;;;;;12.45;5.43;;;;;;;;;;5099179;27;20106;-52
2023/07/16 08:18:14;;;;;;;14.93;5.55;;;;;;;;;;5101783;27;20558;-52
2023/07/16 08:20:43;;;;;;;13.88;6.15;;;;;;;;;;5101256;27;20462;-52
2023/07/16 08:23:10;;;;;;;12.70;5.88;;;;;;;;;;5101837;27;20539;-52
2023/07/16 08:25:36;;;;;;;13.68;5.13;;;;;;;;;;5097140;27;20040;-52
2023/07/16 08:28:06;;;;;;;12.32;4.25;;;;;;;;;;5095637;27;20044;-52
2023/07/16 08:30:33;;;;;;;12.82;5.40;;;;;;;;;;5098857;27;20058;-52
2023/07/16 08:32:59;;;;;;;14.48;4.50;;;;;;;;;;5096410;27;20071;-52
2023/07/16 08:35:25;;;;;;;13.40;4.93;;;;;;;;;;5100423;27;20050;-52
2023/07/16 08:37:51;;;;;;;9.77;4.90;;;;;;;;;;5102371;27;20115;-52
2023/07/16 08:40:18;;;;;;;13.75;5.68;;;;;;;;;;5098370;27;20040;-52
2023/07/16 08:42:48;;;;;;;13.80;4.55;;;;;;;;;;5099869;27;20468;-52
2023/07/16 08:45:16;;;;;;;10.30;4.80;;;;;;;;;;5102266;27;20048;-52
2023/07/16 08:47:42;;;;;;;12.98;4.57;;;;;;;;;;5087304;27;20042;-51
2023/07/16 08:50:08;;;;;;;11.68;3.45;;;;;;;;;;5101406;27;20040;-52
2023/07/16 08:52:34;;;;;;;16.08;4.55;;;;;;;;;;5101891;27;20040;-52
2023/07/16 08:55:00;;;;;;;9.88;4.32;;;;;;;;;;5100904;27;20748;-52
2023/07/16 08:57:27;;;;;;;11.85;4.10;;;;;;;;;;5100308;27;20592;-52
2023/07/16 08:59:53;;;;;;;12.57;3.58;;;;;;;;;;5101567;27;20048;-52
2023/07/16 09:02:19;;;;;;;15.48;4.72;;;;;;;;;;5100830;27;20036;-52
2023/07/16 09:04:48;;;;;;;9.32;3.92;;;;;;;;;;5100055;27;20125;-52
2023/07/16 09:07:14;;;;;;;7.38;3.42;;;;;;;;;;5101091;27;20181;-52
2023/07/16 09:09:40;;;;;;;8.55;3.17;;;;;;;;;;5102984;27;20048;-52
2023/07/16 09:12:06;;;;;;;7.03;4.30;;;;;;;;;;5100719;27;20115;-52
2023/07/16 09:14:33;;;;;;;8.95;4.43;;;;;;;;;;5102019;27;20041;-51
2023/07/16 09:16:59;;;;;;;6.65;3.28;;;;;;;;;;5100255;27;20040;-52
2023/07/16 09:19:25;;;;;;;7.68;3.80;;;;;;;;;;5104991;27;20098;-51
2023/07/16 09:21:52;;;;;;;7.00;3.13;;;;;;;;;;5086040;28;20816;-52
2023/07/16 09:24:19;;;;;;;6.47;3.13;;;;;;;;;;5103245;27;20040;-52
2023/07/16 09:26:51;;;;;;;8.93;4.10;;;;;;;;;;5104808;27;20051;-52
2023/07/16 09:29:17;;;;;;;6.63;3.10;;;;;;;;;;5104995;27;20048;-52
2023/07/16 09:31:53;;;;;;;10.57;4.32;;;;;;;;;;5102795;27;20071;-52
2023/07/16 09:34:19;;;;;;;11.02;4.70;;;;;;;;;;5106188;27;20036;-52
2023/07/16 09:36:48;;;;;;;8.50;3.35;;;;;;;;;;5101299;27;20501;-52
2023/07/16 09:39:17;;;;;;;8.27;3.97;;;;;;;;;;5099016;27;20097;-52
2023/07/16 09:41:43;;;;;;;8.65;3.75;;;;;;;;;;5100344;27;20518;-52
2023/07/16 09:44:11;;;;;;;9.75;5.10;;;;;;;;;;5103070;27;20599;-52
2023/07/16 09:46:37;;;;;;;8.93;3.38;;;;;;;;;;5105149;27;20558;-52
2023/07/16 09:49:03;;;;;;;9.90;3.88;;;;;;;;;;5103919;27;20520;-52
2023/07/16 09:51:31;;;;;;;12.00;4.60;;;;;;;;;;5101766;27;20472;-52
2023/07/16 09:53:58;;;;;;;6.97;3.85;;;;;;;;;;5104462;27;20379;-52
2023/07/16 09:56:27;;;;;;;10.13;4.25;;;;;;;;;;5106720;27;20075;-52
2023/07/16 09:58:53;;;;;;;8.43;4.40;;;;;;;;;;5103868;27;20052;-52
2023/07/16 10:01:19;;;;;;;9.25;4.00;;;;;;;;;;5106663;27;20160;-52
2023/07/16 10:03:51;;;;;;;9.55;4.57;;;;;;;;;;5101870;27;20044;-52
2023/07/16 10:06:18;;;;;;;12.20;4.90;;;;;;;;;;5104444;27;20044;-52
2023/07/16 10:08:49;;;;;;;9.60;4.28;;;;;;;;;;5106539;27;20040;-52
2023/07/16 10:11:17;;;;;;;7.80;4.13;;;;;;;;;;5101868;27;20054;-52
2023/07/16 10:13:43;;;;;;;7.38;4.07;;;;;;;;;;5103411;27;20055;-52
2023/07/16 10:16:21;;;;;;;8.80;4.93;;;;;;;;;;5100070;27;20656;-52
2023/07/16 10:18:53;;;;;;;11.85;4.85;;;;;;;;;;5103524;27;20077;-52
2023/07/16 10:21:24;;;;;;;6.50;4.07;;;;;;;;;;5085604;28;20127;-52
2023/07/16 10:23:58;;;;;;;9.05;4.72;;;;;;;;;;5106910;27;20067;-52
2023/07/16 10:26:27;;;;;;;11.70;6.13;;;;;;;;;;5102158;27;20036;-52
2023/07/16 10:28:53;;;;;;;16.40;6.40;;;;;;;;;;5102913;27;20225;-52
2023/07/16 10:31:26;;;;;;;10.65;5.57;;;;;;;;;;5103212;27;20044;-52
2023/07/16 10:34:04;;;;;;;9.82;4.28;;;;;;;;;;5100572;27;20041;-52
2023/07/16 10:36:30;;;;;;;7.38;4.97;;;;;;;;;;5101852;27;20049;-52
2023/07/16 10:39:03;;;;;;;9.70;5.10;;;;;;;;;;5101851;27;20619;-52
2023/07/16 10:41:29;;;;;;;8.77;4.57;;;;;;;;;;5102190;27;20041;-52
2023/07/16 10:43:55;;;;;;;7.90;4.03;;;;;;;;;;5100800;27;20096;-52
2023/07/16 10:46:21;;;;;;;10.30;4.50;;;;;;;;;;5103047;27;20044;-52
2023/07/16 10:48:48;;;;;;;9.52;3.80;;;;;;;;;;5096178;27;20143;-52
2023/07/16 10:51:17;;;;;;;8.15;4.20;;;;;;;;;;5099324;27;20067;-52
2023/07/16 10:53:43;;;;;;;8.48;4.15;;;;;;;;;;5099635;27;20070;-52
2023/07/16 10:56:09;;;;;;;7.72;4.10;;;;;;;;;;5102346;27;20040;-52
2023/07/16 10:58:40;;;;;;;9.18;4.53;;;;;;;;;;5102909;27;20517;-52
2023/07/16 11:01:08;;;;;;;6.97;5.15;;;;;;;;;;5101092;27;20105;-52
2023/07/16 11:03:36;;;;;;;11.35;4.70;;;;;;;;;;5100030;27;20040;-52
2023/07/16 11:06:09;;;;;;;7.88;4.47;;;;;;;;;;5102500;27;20736;-52
2023/07/16 11:08:35;;;;;;;8.25;3.80;;;;;;;;;;5099528;27;20044;-52
2023/07/16 11:11:01;;;;;;;9.27;4.70;;;;;;;;;;5102922;27;20040;-52
2023/07/16 11:13:37;;;;;;;10.77;4.05;;;;;;;;;;5098270;27;20040;-52
2023/07/16 11:16:09;;;;;;;8.32;4.47;;;;;;;;;;5101655;27;20046;-52
2023/07/16 11:18:35;;;;;;;11.15;4.78;;;;;;;;;;5087236;28;20075;-52
2023/07/16 11:21:01;;;;;;;10.00;4.15;;;;;;;;;;5101336;27;20653;-52
2023/07/16 11:23:27;;;;;;;6.65;3.40;;;;;;;;;;5095139;27;20036;-52
2023/07/16 11:25:53;;;;;;;8.15;2.85;;;;;;;;;;5096117;27;20040;-52
2023/07/16 11:28:19;;;;;;;9.52;4.15;;;;;;;;;;5096998;27;20044;-52
2023/07/16 11:30:45;;;;;;;6.22;4.32;;;;;;;;;;5103581;27;20139;-53
2023/07/16 11:33:12;;;;;;;7.07;4.00;;;;;;;;;;5104670;27;20075;-52
2023/07/16 11:35:38;;;;;;;7.53;3.70;;;;;;;;;;5104080;27;20066;-52
2023/07/16 11:38:05;;;;;;;8.32;3.92;;;;;;;;;;5102305;27;20044;-52
2023/07/16 11:40:34;;;;;;;9.20;4.65;;;;;;;;;;5102910;27;20040;-52
2023/07/16 11:43:08;;;;;;;6.20;3.83;;;;;;;;;;5100916;27;20315;-52
2023/07/16 11:45:34;;;;;;;7.03;4.00;;;;;;;;;;5102422;27;20040;-52
2023/07/16 11:48:00;;;;;;;7.80;3.85;;;;;;;;;;5100244;27;20355;-53
2023/07/16 11:50:26;;;;;;;8.63;4.25;;;;;;;;;;5103663;27;20051;-52
2023/07/16 11:52:53;;;;;;;9.30;4.63;;;;;;;;;;5101328;27;20213;-52
2023/07/16 11:55:19;;;;;;;11.50;4.63;;;;;;;;;;5100753;27;20038;-52
2023/07/16 11:57:45;;;;;;;8.07;4.00;;;;;;;;;;5098428;27;20044;-52
2023/07/16 12:00:12;;;;;;;7.57;4.35;;;;;;;;;;5100542;27;20484;-52
2023/07/16 12:02:38;;;;;;;8.35;4.00;;;;;;;;;;5099195;27;20036;-52
2023/07/16 12:05:04;;;;;;;9.00;3.88;;;;;;;;;;5102278;27;20044;-52
2023/07/16 12:07:34;;;;;;;8.80;4.53;;;;;;;;;;5100203;27;20074;-52
2023/07/16 12:10:01;;;;;;;12.10;4.35;;;;;;;;;;5102280;27;20044;-52
2023/07/16 12:12:27;;;;;;;8.52;3.58;;;;;;;;;;5102415;27;20070;-52
2023/07/16 12:14:53;;;;;;;8.43;4.70;;;;;;;;;;5102261;27;20097;-52
2023/07/16 12:17:19;;;;;;;7.55;4.43;;;;;;;;;;5100830;27;20139;-52
2023/07/16 12:19:45;;;;;;;10.57;4.63;;;;;;;;;;5102894;27;20040;-52
2023/07/16 12:22:12;;;;;;;12.30;4.18;;;;;;;;;;5102713;27;20139;-52
2023/07/16 12:24:38;;;;;;;8.00;4.30;;;;;;;;;;5105709;27;20044;-52
2023/07/16 12:27:04;;;;;;;7.22;3.67;;;;;;;;;;5101856;27;20127;-52
2023/07/16 12:29:30;;;;;;;9.90;4.57;;;;;;;;;;5099273;27;20059;-52
2023/07/16 12:31:56;;;;;;;7.88;3.40;;;;;;;;;;5101488;27;20040;-53
2023/07/16 12:34:23;;;;;;;7.75;3.33;;;;;;;;;;5100237;27;20036;-52
2023/07/16 12:36:49;;;;;;;11.05;4.00;;;;;;;;;;5103092;27;20044;-52
2023/07/16 12:39:15;;;;;;;9.35;3.65;;;;;;;;;;5100490;27;20024;-52
2023/07/16 12:41:42;;;;;;;7.40;3.22;;;;;;;;;;5103520;27;20502;-52
2023/07/16 12:44:08;;;;;;;7.43;3.38;;;;;;;;;;5083996;28;20040;-52
2023/07/16 12:46:34;;;;;;;7.38;3.45;;;;;;;;;;5103027;27;20129;-52
2023/07/16 12:49:00;;;;;;;8.73;4.25;;;;;;;;;;5082855;28;20121;-52
2023/07/16 12:51:26;;;;;;;8.73;4.00;;;;;;;;;;5099581;27;20040;-52
2023/07/16 12:53:52;;;;;;;8.98;4.47;;;;;;;;;;5102490;27;20536;-52
2023/07/16 12:56:18;;;;;;;9.50;4.35;;;;;;;;;;5099708;27;20087;-52
2023/07/16 12:58:44;;;;;;;12.52;4.57;;;;;;;;;;5098238;27;20511;-52
2023/07/16 13:01:11;;;;;;;5.68;3.17;;;;;;;;;;5096381;27;20120;-52
2023/07/16 13:03:37;;;;;;;13.18;4.43;;;;;;;;;;5099512;27;20524;-52
2023/07/16 13:06:03;;;;;;;7.70;3.38;;;;;;;;;;5094599;27;20093;-52
2023/07/16 13:08:30;;;;;;;9.27;3.95;;;;;;;;;;5097746;27;20528;-52
2023/07/16 13:10:56;;;;;;;7.55;3.75;;;;;;;;;;5101080;27;20062;-52
2023/07/16 13:13:22;;;;;;;5.57;2.65;;;;;;;;;;5098178;27;20044;-52
2023/07/16 13:15:51;;;;;;;6.07;3.15;;;;;;;;;;5101004;27;20044;-52
2023/07/16 13:18:18;;;;;;;5.82;3.55;;;;;;;;;;5098435;27;20563;-52
2023/07/16 13:20:44;;;;;;;8.20;3.22;;;;;;;;;;5099964;27;20041;-52
2023/07/16 13:23:10;;;;;;;7.80;3.47;;;;;;;;;;5097942;27;20987;-52
2023/07/16 13:25:38;;;;;;;6.63;3.03;;;;;;;;;;5066162;27;20519;-52
2023/07/16 13:28:05;;;;;;;6.47;4.03;;;;;;;;;;5079244;28;20091;-52
2023/07/16 13:30:31;;;;;;;5.88;3.63;;;;;;;;;;5102230;27;20054;-52
2023/07/16 13:32:57;;;;;;;6.45;3.60;;;;;;;;;;5100195;27;20044;-52
2023/07/16 13:35:23;;;;;;;7.75;3.00;;;;;;;;;;5099410;27;20040;-52
2023/07/16 13:37:50;;;;;;;9.27;3.17;;;;;;;;;;5086770;28;20048;-52
2023/07/16 13:40:19;;;;;;;6.03;3.10;;;;;;;;;;5100867;27;20627;-52
2023/07/16 13:42:46;;;;;;;7.68;3.35;;;;;;;;;;5102164;27;20051;-52
2023/07/16 13:45:12;;;;;;;7.65;3.00;;;;;;;;;;5097844;27;20044;-52
2023/07/16 13:47:38;;;;;;;9.27;4.20;;;;;;;;;;5100634;27;20095;-52
2023/07/16 13:50:04;;;;;;;12.02;4.90;;;;;;;;;;5100892;27;20063;-52
2023/07/16 13:52:30;;;;;;;7.43;2.85;;;;;;;;;;5101202;27;20040;-52
2023/07/16 13:54:56;;;;;;;6.95;4.13;;;;;;;;;;5100348;27;20561;-52
2023/07/16 13:57:23;;;;;;;6.90;2.58;;;;;;;;;;5101795;27;20047;-52
2023/07/16 13:59:49;;;;;;;10.80;3.75;;;;;;;;;;5102031;27;20040;-52
2023/07/16 14:02:15;;;;;;;8.30;3.95;;;;;;;;;;5100492;27;20047;-52
2023/07/16 14:04:41;;;;;;;6.50;3.67;;;;;;;;;;5102967;27;20040;-52
2023/07/16 14:07:07;;;;;;;6.05;3.53;;;;;;;;;;5103874;27;20455;-52
2023/07/16 14:09:33;;;;;;;9.80;3.75;;;;;;;;;;5101113;27;20036;-52
2023/07/16 14:11:59;;;;;;;5.18;2.58;;;;;;;;;;5098658;27;20039;-52
2023/07/16 14:14:25;;;;;;;6.00;4.22;;;;;;;;;;5097648;27;20036;-52
2023/07/16 14:16:51;;;;;;;11.32;3.60;;;;;;;;;;5100439;27;20041;-52
2023/07/16 14:19:18;;;;;;;5.90;3.17;;;;;;;;;;5101536;27;20036;-52
2023/07/16 14:21:44;;;;;;;6.35;3.47;;;;;;;;;;5104185;27;20040;-52
2023/07/16 14:24:10;;;;;;;8.65;2.80;;;;;;;;;;5104464;27;20048;-52
2023/07/16 14:26:36;;;;;;;10.93;4.10;;;;;;;;;;5104134;27;20562;-52
2023/07/16 14:29:02;;;;;;;5.97;3.35;;;;;;;;;;5104500;27;20070;-52
2023/07/16 14:31:28;;;;;;;6.30;2.90;;;;;;;;;;5103222;27;20040;-52